createdAt,value
2023-03-11T00:00:16.997Z,67.70
2023-03-11T00:01:16.957Z,67.08
2023-03-11T00:02:17.039Z,67.80
2023-03-11T00:03:16.970Z,66.25
2023-03-11T00:04:16.931Z,67.18
2023-03-11T00:05:16.953Z,66.87
2023-03-11T00:06:16.934Z,67.29
2023-03-11T00:07:16.890Z,66.35
2023-03-11T00:08:16.932Z,65.63
2023-03-11T00:09:16.866Z,65.73
2023-03-11T00:10:16.851Z,66.25
2023-03-11T00:11:16.840Z,65.94
2023-03-11T00:12:16.832Z,65.32
2023-03-11T00:13:16.862Z,65.84
2023-03-11T00:14:16.815Z,67.39
2023-03-11T00:15:16.782Z,68.12
2023-03-11T00:16:16.815Z,67.29
2023-03-11T00:17:16.793Z,68.22
2023-03-11T00:18:16.739Z,68.98
2023-03-11T00:19:16.788Z,69.90
2023-03-11T00:20:16.709Z,70.01
2023-03-11T00:21:16.745Z,71.80
2023-03-11T00:22:16.716Z,72.42
2023-03-11T00:23:16.704Z,73.46
2023-03-11T00:24:16.669Z,74.40
2023-03-11T00:25:16.698Z,74.40
2023-03-11T00:26:16.642Z,75.22
2023-03-11T00:27:16.624Z,74.91
2023-03-11T00:28:16.623Z,75.95
2023-03-11T00:29:16.629Z,76.61
2023-03-11T00:30:16.604Z,77.64
2023-03-11T00:31:16.619Z,78.09
2023-03-11T00:32:16.566Z,78.30
2023-03-11T00:33:16.546Z,77.99
2023-03-11T00:34:16.552Z,78.13
2023-03-11T00:35:16.529Z,78.03
2023-03-11T00:36:16.497Z,78.03
2023-03-11T00:37:16.480Z,78.44
2023-03-11T00:38:16.514Z,78.99
2023-03-11T00:39:16.455Z,77.33
2023-03-11T00:40:16.497Z,74.95
2023-03-11T00:41:16.455Z,74.84
2023-03-11T00:42:16.439Z,73.08
2023-03-11T00:43:16.405Z,73.18
2023-03-11T00:44:16.405Z,73.28
2023-03-11T00:45:16.393Z,74.11
2023-03-11T00:46:16.422Z,71.11
2023-03-11T00:47:16.387Z,72.69
2023-03-11T00:48:16.354Z,71.76
2023-03-11T00:49:16.356Z,70.72
2023-03-11T00:50:16.315Z,70.51
2023-03-11T00:51:16.394Z,69.48
2023-03-11T00:52:16.313Z,68.96
2023-03-11T00:53:16.278Z,67.92
2023-03-11T00:54:16.271Z,70.83
2023-03-11T00:55:16.267Z,72.94
2023-03-11T00:56:16.269Z,72.73
2023-03-11T00:57:16.227Z,72.11
2023-03-11T00:58:16.248Z,68.26
2023-03-11T00:59:16.212Z,69.09
2023-03-11T01:00:16.197Z,68.85
2023-03-11T01:01:16.234Z,67.71
2023-03-11T01:02:16.182Z,66.36
2023-03-11T01:03:16.155Z,65.42
2023-03-11T01:04:16.147Z,67.64
2023-03-11T01:05:16.159Z,68.16
2023-03-11T01:06:16.127Z,68.57
2023-03-11T01:07:16.153Z,67.54
2023-03-11T01:08:16.087Z,65.77
2023-03-11T01:09:16.073Z,66.60
2023-03-11T01:10:16.053Z,68.05
2023-03-11T01:11:16.095Z,67.85
2023-03-11T01:12:16.060Z,67.64
2023-03-11T01:13:16.043Z,68.47
2023-03-11T01:14:16.006Z,69.20
2023-03-11T01:15:16.009Z,67.64
2023-03-11T01:16:16.059Z,66.91
2023-03-11T01:17:15.986Z,66.81
2023-03-11T01:18:15.965Z,68.57
2023-03-11T01:19:15.950Z,68.99
2023-03-11T01:20:15.920Z,69.09
2023-03-11T01:21:15.949Z,69.30
2023-03-11T01:22:15.905Z,69.40
2023-03-11T01:23:15.942Z,70.34
2023-03-11T01:24:15.865Z,70.27
2023-03-11T01:25:15.853Z,70.58
2023-03-11T01:26:15.856Z,69.85
2023-03-11T01:27:15.860Z,70.17
2023-03-11T01:28:15.868Z,70.58
2023-03-11T01:29:15.805Z,70.68
2023-03-11T01:30:15.813Z,70.27
2023-03-11T01:31:15.890Z,70.79
2023-03-11T01:32:15.783Z,70.06
2023-03-11T01:33:15.779Z,70.58
2023-03-11T01:34:15.745Z,70.79
2023-03-11T01:35:15.834Z,70.58
2023-03-11T01:36:15.735Z,70.48
2023-03-11T01:37:15.701Z,69.64
2023-03-11T01:38:15.693Z,69.12
2023-03-11T01:39:15.682Z,67.98
2023-03-11T01:40:15.695Z,68.40
2023-03-11T01:41:15.690Z,67.15
2023-03-11T01:42:15.686Z,67.67
2023-03-11T01:43:15.652Z,68.91
2023-03-11T01:44:15.648Z,65.28
2023-03-11T01:45:15.601Z,66.31
2023-03-11T01:46:15.731Z,67.98
2023-03-11T01:47:15.602Z,68.81
2023-03-11T01:48:15.586Z,68.81
2023-03-11T01:49:15.565Z,69.54
2023-03-11T01:50:15.527Z,68.71
2023-03-11T01:51:15.513Z,67.98
2023-03-11T01:52:15.530Z,67.77
2023-03-11T01:53:15.531Z,68.50
2023-03-11T01:54:15.486Z,68.91
2023-03-11T01:55:15.494Z,68.29
2023-03-11T01:56:15.453Z,67.98
2023-03-11T01:57:15.500Z,67.57
2023-03-11T01:58:15.497Z,65.80
2023-03-11T01:59:15.435Z,64.14
2023-03-11T02:00:15.404Z,66.21
2023-03-11T02:01:15.415Z,67.88
2023-03-11T02:02:15.403Z,67.77
2023-03-11T02:03:15.447Z,65.17
2023-03-11T02:04:15.382Z,65.28
2023-03-11T02:05:15.360Z,65.48
2023-03-11T02:06:15.311Z,65.17
2023-03-11T02:07:15.313Z,65.80
2023-03-11T02:08:15.290Z,66.31
2023-03-11T02:09:15.317Z,67.05
2023-03-11T02:10:15.278Z,68.08
2023-03-11T02:11:15.259Z,66.63
2023-03-11T02:12:15.238Z,64.86
2023-03-11T02:13:15.262Z,65.69
2023-03-11T02:14:15.238Z,66.84
2023-03-11T02:15:15.208Z,68.08
2023-03-11T02:16:15.263Z,67.88
2023-03-11T02:17:15.186Z,66.42
2023-03-11T02:18:15.216Z,68.60
2023-03-11T02:19:15.157Z,68.71
2023-03-11T02:20:15.137Z,69.02
2023-03-11T02:21:15.152Z,69.23
2023-03-11T02:22:15.128Z,67.57
2023-03-11T02:23:15.113Z,66.94
2023-03-11T02:24:15.126Z,67.67
2023-03-11T02:25:15.102Z,68.40
2023-03-11T02:26:15.069Z,67.88
2023-03-11T02:27:15.046Z,67.88
2023-03-11T02:28:15.035Z,67.46
2023-03-11T02:29:15.064Z,66.94
2023-03-11T02:30:15.040Z,67.67
2023-03-11T02:31:15.072Z,67.88
2023-03-11T02:32:15.075Z,68.91
2023-03-11T02:33:14.990Z,70.06
2023-03-11T02:34:14.964Z,69.85
2023-03-11T02:35:14.943Z,69.12
2023-03-11T02:36:14.969Z,69.33
2023-03-11T02:37:14.923Z,69.96
2023-03-11T02:38:14.905Z,69.64
2023-03-11T02:39:14.893Z,69.85
2023-03-11T02:40:14.937Z,69.85
2023-03-11T02:41:14.888Z,68.12
2023-03-11T02:42:14.858Z,69.33
2023-03-11T02:43:14.849Z,69.89
2023-03-11T02:44:14.865Z,69.99
2023-03-11T02:45:14.820Z,70.20
2023-03-11T02:46:14.864Z,69.15
2023-03-11T02:47:14.801Z,66.24
2023-03-11T02:48:14.771Z,68.22
2023-03-11T02:49:14.757Z,68.74
2023-03-11T02:50:14.737Z,69.78
2023-03-11T02:51:14.766Z,69.57
2023-03-11T02:52:14.751Z,69.05
2023-03-11T02:53:14.707Z,69.47
2023-03-11T02:54:14.700Z,71.23
2023-03-11T02:55:14.702Z,70.72
2023-03-11T02:56:14.697Z,70.40
2023-03-11T02:57:14.666Z,69.57
2023-03-11T02:58:14.645Z,70.09
2023-03-11T02:59:14.632Z,69.57
2023-03-11T03:00:14.610Z,70.40
2023-03-11T03:01:14.700Z,70.82
2023-03-11T03:02:14.601Z,71.75
2023-03-11T03:03:14.569Z,71.55
2023-03-11T03:04:14.661Z,71.65
2023-03-11T03:05:14.542Z,71.86
2023-03-11T03:06:14.572Z,71.86
2023-03-11T03:07:14.559Z,70.40
2023-03-11T03:08:14.507Z,68.01
2023-03-11T03:09:14.503Z,68.95
2023-03-11T03:10:14.498Z,70.40
2023-03-11T03:11:14.486Z,70.51
2023-03-11T03:12:14.483Z,69.68
2023-03-11T03:13:14.448Z,70.51
2023-03-11T03:14:14.446Z,70.40
2023-03-11T03:15:14.421Z,68.63
2023-03-11T03:16:14.412Z,69.05
2023-03-11T03:17:14.583Z,69.78
2023-03-11T03:18:14.392Z,69.89
2023-03-11T03:19:14.372Z,70.20
2023-03-11T03:20:14.377Z,70.61
2023-03-11T03:21:14.343Z,70.82
2023-03-11T03:22:14.345Z,70.30
2023-03-11T03:23:14.338Z,70.61
2023-03-11T03:24:14.310Z,70.82
2023-03-11T03:25:14.290Z,70.72
2023-03-11T03:26:14.272Z,71.23
2023-03-11T03:27:14.280Z,70.82
2023-03-11T03:28:14.251Z,70.72
2023-03-11T03:29:14.231Z,70.72
2023-03-11T03:30:14.221Z,69.89
2023-03-11T03:31:14.198Z,69.57
2023-03-11T03:32:14.300Z,69.05
2023-03-11T03:33:14.191Z,70.09
2023-03-11T03:34:14.168Z,70.20
2023-03-11T03:35:14.162Z,70.20
2023-03-11T03:36:14.195Z,70.30
2023-03-11T03:37:14.163Z,70.92
2023-03-11T03:38:14.123Z,70.61
2023-03-11T03:39:14.099Z,70.92
2023-03-11T03:40:14.134Z,70.61
2023-03-11T03:41:14.089Z,70.09
2023-03-11T03:42:14.096Z,70.51
2023-03-11T03:43:14.058Z,70.82
2023-03-11T03:44:14.061Z,70.51
2023-03-11T03:45:14.026Z,69.57
2023-03-11T03:46:14.052Z,69.68
2023-03-11T03:47:14.027Z,70.30
2023-03-11T03:48:14.012Z,70.51
2023-03-11T03:49:13.981Z,70.82
2023-03-11T03:50:13.988Z,71.03
2023-03-11T03:51:13.949Z,71.65
2023-03-11T03:52:13.967Z,72.17
2023-03-11T03:53:13.925Z,71.65
2023-03-11T03:54:13.902Z,72.07
2023-03-11T03:55:13.899Z,72.07
2023-03-11T03:56:13.888Z,71.97
2023-03-11T03:57:13.897Z,72.07
2023-03-11T03:58:13.855Z,71.86
2023-03-11T03:59:13.857Z,72.49
2023-03-11T04:00:13.832Z,72.69
2023-03-11T04:01:13.858Z,72.80
2023-03-11T04:02:13.879Z,73.00
2023-03-11T04:03:13.843Z,73.00
2023-03-11T04:04:13.857Z,73.32
2023-03-11T04:05:13.763Z,72.69
2023-03-11T04:06:13.782Z,73.42
2023-03-11T04:07:13.744Z,73.56
2023-03-11T04:08:13.740Z,73.97
2023-03-11T04:09:13.730Z,74.08
2023-03-11T04:10:13.715Z,74.29
2023-03-11T04:11:13.700Z,74.80
2023-03-11T04:12:13.689Z,75.22
2023-03-11T04:13:13.709Z,75.43
2023-03-11T04:14:13.674Z,75.54
2023-03-11T04:15:13.648Z,75.85
2023-03-11T04:16:13.637Z,75.95
2023-03-11T04:17:13.617Z,76.16
2023-03-11T04:18:13.706Z,76.47
2023-03-11T04:19:13.603Z,75.95
2023-03-11T04:20:13.566Z,76.26
2023-03-11T04:21:13.564Z,76.47
2023-03-11T04:22:13.563Z,76.57
2023-03-11T04:23:13.542Z,76.57
2023-03-11T04:24:13.548Z,77.51
2023-03-11T04:25:13.512Z,77.20
2023-03-11T04:26:13.516Z,76.68
2023-03-11T04:27:13.471Z,76.78
2023-03-11T04:28:13.469Z,77.13
2023-03-11T04:29:13.488Z,77.13
2023-03-11T04:30:13.457Z,77.23
2023-03-11T04:31:13.457Z,77.75
2023-03-11T04:32:13.435Z,78.07
2023-03-11T04:33:13.413Z,78.38
2023-03-11T04:34:13.430Z,77.86
2023-03-11T04:35:13.394Z,77.44
2023-03-11T04:36:13.364Z,77.65
2023-03-11T04:37:13.361Z,77.75
2023-03-11T04:38:13.329Z,77.86
2023-03-11T04:39:13.345Z,77.75
2023-03-11T04:40:13.315Z,77.75
2023-03-11T04:41:13.297Z,78.07
2023-03-11T04:42:13.282Z,78.38
2023-03-11T04:43:13.284Z,78.69
2023-03-11T04:44:13.278Z,78.80
2023-03-11T04:45:13.222Z,79.14
2023-03-11T04:46:13.254Z,79.35
2023-03-11T04:47:13.257Z,79.77
2023-03-11T04:48:13.200Z,79.87
2023-03-11T04:49:13.190Z,80.50
2023-03-11T04:50:13.377Z,80.81
2023-03-11T04:51:13.162Z,80.71
2023-03-11T04:52:13.187Z,81.02
2023-03-11T04:53:13.145Z,81.26
2023-03-11T04:54:13.124Z,81.58
2023-03-11T04:55:13.095Z,81.79
2023-03-11T04:56:13.108Z,81.47
2023-03-11T04:57:13.076Z,81.47
2023-03-11T04:58:13.103Z,81.58
2023-03-11T04:59:13.063Z,81.47
2023-03-11T05:00:13.036Z,81.79
2023-03-11T05:01:13.071Z,81.79
2023-03-11T05:02:13.125Z,79.60
2023-03-11T05:03:13.067Z,79.80
2023-03-11T05:04:13.067Z,80.74
2023-03-11T05:05:12.989Z,80.54
2023-03-11T05:06:12.958Z,80.57
2023-03-11T05:07:12.967Z,80.88
2023-03-11T05:08:12.950Z,81.82
2023-03-11T05:09:12.935Z,80.99
2023-03-11T05:10:12.919Z,82.65
2023-03-11T05:11:12.890Z,83.84
2023-03-11T05:12:12.929Z,84.67
2023-03-11T05:13:12.867Z,85.10
2023-03-11T05:14:12.846Z,85.72
2023-03-11T05:15:12.848Z,86.03
2023-03-11T05:16:12.864Z,86.13
2023-03-11T05:17:12.844Z,86.24
2023-03-11T05:18:12.836Z,86.45
2023-03-11T05:19:12.793Z,86.49
2023-03-11T05:20:12.801Z,86.69
2023-03-11T05:21:12.766Z,87.01
2023-03-11T05:22:12.755Z,87.22
2023-03-11T05:23:12.774Z,86.80
2023-03-11T05:24:12.739Z,86.49
2023-03-11T05:25:12.719Z,86.91
2023-03-11T05:26:12.738Z,86.80
2023-03-11T05:27:12.714Z,87.01
2023-03-11T05:28:12.685Z,85.55
2023-03-11T05:29:12.672Z,84.40
2023-03-11T05:30:12.647Z,84.67
2023-03-11T05:31:12.690Z,84.47
2023-03-11T05:32:12.659Z,84.36
2023-03-11T05:33:12.603Z,84.47
2023-03-11T05:34:12.603Z,84.57
2023-03-11T05:35:12.593Z,84.92
2023-03-11T05:36:12.599Z,85.55
2023-03-11T05:37:12.566Z,85.86
2023-03-11T05:38:12.564Z,86.28
2023-03-11T05:39:12.545Z,86.69
2023-03-11T05:40:12.520Z,87.22
2023-03-11T05:41:12.528Z,87.53
2023-03-11T05:42:12.517Z,87.63
2023-03-11T05:43:12.483Z,87.43
2023-03-11T05:44:12.501Z,86.69
2023-03-11T05:45:12.450Z,86.38
2023-03-11T05:46:12.544Z,86.28
2023-03-11T05:47:12.465Z,86.80
2023-03-11T05:48:12.418Z,87.22
2023-03-11T05:49:12.400Z,87.12
2023-03-11T05:50:12.402Z,86.49
2023-03-11T05:51:12.372Z,86.28
2023-03-11T05:52:12.361Z,85.55
2023-03-11T05:53:12.382Z,86.00
2023-03-11T05:54:12.342Z,86.94
2023-03-11T05:55:12.430Z,87.57
2023-03-11T05:56:12.319Z,87.68
2023-03-11T05:57:12.305Z,86.84
2023-03-11T05:58:12.317Z,86.21
2023-03-11T05:59:13.781Z,85.90
2023-03-11T06:00:12.391Z,84.65
2023-03-11T06:01:12.241Z,85.49
2023-03-11T06:02:12.225Z,85.69
2023-03-11T06:03:12.252Z,86.00
2023-03-11T06:04:12.440Z,86.53
2023-03-11T06:05:13.689Z,86.53
2023-03-11T06:06:12.746Z,85.86
2023-03-11T06:07:12.196Z,85.44
2023-03-11T06:08:12.180Z,85.13
2023-03-11T06:09:12.145Z,85.03
2023-03-11T06:10:12.130Z,85.24
2023-03-11T06:11:12.105Z,83.78
2023-03-11T06:12:12.101Z,83.47
2023-03-11T06:13:12.118Z,83.57
2023-03-11T06:14:12.076Z,83.78
2023-03-11T06:15:12.080Z,82.73
2023-03-11T06:16:12.089Z,82.31
2023-03-11T06:17:12.040Z,82.73
2023-03-11T06:18:12.007Z,83.47
2023-03-11T06:19:12.048Z,83.63
2023-03-11T06:20:12.001Z,83.63
2023-03-11T06:21:11.982Z,83.11
2023-03-11T06:22:11.970Z,83.84
2023-03-11T06:23:11.954Z,83.63
2023-03-11T06:24:11.979Z,83.42
2023-03-11T06:25:11.928Z,83.32
2023-03-11T06:26:11.922Z,83.01
2023-03-11T06:27:11.920Z,82.38
2023-03-11T06:28:11.911Z,79.46
2023-03-11T06:29:11.904Z,78.31
2023-03-11T06:30:11.864Z,76.96
2023-03-11T06:31:11.923Z,76.96
2023-03-11T06:32:11.905Z,76.33
2023-03-11T06:33:11.821Z,76.12
2023-03-11T06:34:11.818Z,76.54
2023-03-11T06:35:11.812Z,76.33
2023-03-11T06:36:11.812Z,75.29
2023-03-11T06:37:11.760Z,75.40
2023-03-11T06:38:11.758Z,74.98
2023-03-11T06:39:11.737Z,74.66
2023-03-11T06:40:11.742Z,74.66
2023-03-11T06:41:11.752Z,74.01
2023-03-11T06:42:11.704Z,73.72
2023-03-11T06:43:11.682Z,73.80
2023-03-11T06:44:11.682Z,73.69
2023-03-11T06:45:11.696Z,74.42
2023-03-11T06:46:11.692Z,74.32
2023-03-11T06:47:11.694Z,74.01
2023-03-11T06:48:11.626Z,73.27
2023-03-11T06:49:11.609Z,73.17
2023-03-11T06:50:11.594Z,73.59
2023-03-11T06:51:11.605Z,74.63
2023-03-11T06:52:11.559Z,74.32
2023-03-11T06:53:11.562Z,74.63
2023-03-11T06:54:11.568Z,74.52
2023-03-11T06:55:11.565Z,75.26
2023-03-11T06:56:11.535Z,74.42
2023-03-11T06:57:11.514Z,73.49
2023-03-11T06:58:11.516Z,72.02
2023-03-11T06:59:11.478Z,72.86
2023-03-11T07:00:11.467Z,72.86
2023-03-11T07:01:11.548Z,72.86
2023-03-11T07:02:11.430Z,71.71
2023-03-11T07:03:11.424Z,71.61
2023-03-11T07:04:11.530Z,71.61
2023-03-11T07:05:11.415Z,72.02
2023-03-11T07:06:11.424Z,70.22
2023-03-11T07:07:11.413Z,69.07
2023-03-11T07:08:11.364Z,70.43
2023-03-11T07:09:11.360Z,71.16
2023-03-11T07:10:11.341Z,71.89
2023-03-11T07:11:11.331Z,71.89
2023-03-11T07:12:11.363Z,72.51
2023-03-11T07:13:11.344Z,72.62
2023-03-11T07:14:11.292Z,73.03
2023-03-11T07:15:11.278Z,72.83
2023-03-11T07:16:11.314Z,72.62
2023-03-11T07:17:11.273Z,72.20
2023-03-11T07:18:11.225Z,72.20
2023-03-11T07:19:11.213Z,71.99
2023-03-11T07:20:11.199Z,71.78
2023-03-11T07:21:11.190Z,71.47
2023-03-11T07:22:11.204Z,71.99
2023-03-11T07:23:11.176Z,71.99
2023-03-11T07:24:11.154Z,70.64
2023-03-11T07:25:11.146Z,70.64
2023-03-11T07:26:11.132Z,71.26
2023-03-11T07:27:11.141Z,71.89
2023-03-11T07:28:11.095Z,72.62
2023-03-11T07:29:11.091Z,72.62
2023-03-11T07:30:11.110Z,72.41
2023-03-11T07:31:11.088Z,70.84
2023-03-11T07:32:11.051Z,71.26
2023-03-11T07:33:11.061Z,71.78
2023-03-11T07:34:11.028Z,72.09
2023-03-11T07:35:11.007Z,71.78
2023-03-11T07:36:11.037Z,72.20
2023-03-11T07:37:10.982Z,79.56
2023-03-11T07:38:10.974Z,84.00
2023-03-11T07:39:10.975Z,76.37
2023-03-11T07:40:10.979Z,72.72
2023-03-11T07:41:10.922Z,71.27
2023-03-11T07:42:10.944Z,70.02
2023-03-11T07:43:10.901Z,70.02
2023-03-11T07:44:10.884Z,70.33
2023-03-11T07:45:10.887Z,70.47
2023-03-11T07:46:10.976Z,70.26
2023-03-11T07:47:10.875Z,69.43
2023-03-11T07:48:10.840Z,69.74
2023-03-11T07:49:10.827Z,69.84
2023-03-11T07:50:10.812Z,70.19
2023-03-11T07:51:10.794Z,70.29
2023-03-11T07:52:10.824Z,71.23
2023-03-11T07:53:10.796Z,71.86
2023-03-11T07:54:10.763Z,71.44
2023-03-11T07:55:10.772Z,71.33
2023-03-11T07:56:10.744Z,71.65
2023-03-11T07:57:10.723Z,71.65
2023-03-11T07:58:10.722Z,71.12
2023-03-11T07:59:10.723Z,71.44
2023-03-11T08:00:10.701Z,71.86
2023-03-11T08:01:10.678Z,70.71
2023-03-11T08:02:10.698Z,71.75
2023-03-11T08:03:10.695Z,72.51
2023-03-11T08:04:13.609Z,72.93
2023-03-11T08:05:10.631Z,73.45
2023-03-11T08:06:10.629Z,74.07
2023-03-11T08:07:10.626Z,74.18
2023-03-11T08:08:10.574Z,74.70
2023-03-11T08:09:10.591Z,75.22
2023-03-11T08:10:10.578Z,75.64
2023-03-11T08:11:10.545Z,75.64
2023-03-11T08:12:10.526Z,75.64
2023-03-11T08:13:10.511Z,75.43
2023-03-11T08:14:10.517Z,75.43
2023-03-11T08:15:10.494Z,75.53
2023-03-11T08:16:10.506Z,75.64
2023-03-11T08:17:10.464Z,75.43
2023-03-11T08:18:11.120Z,74.80
2023-03-11T08:19:10.443Z,75.01
2023-03-11T08:20:10.420Z,75.43
2023-03-11T08:21:10.408Z,75.22
2023-03-11T08:22:10.398Z,75.43
2023-03-11T08:23:10.388Z,75.85
2023-03-11T08:24:10.377Z,75.74
2023-03-11T08:25:10.351Z,75.74
2023-03-11T08:26:10.375Z,75.74
2023-03-11T08:27:10.321Z,75.43
2023-03-11T08:28:10.317Z,75.74
2023-03-11T08:29:10.337Z,75.64
2023-03-11T08:30:10.303Z,75.22
2023-03-11T08:31:10.375Z,75.26
2023-03-11T08:32:10.256Z,75.43
2023-03-11T08:33:10.266Z,75.46
2023-03-11T08:34:10.247Z,75.12
2023-03-11T08:35:10.270Z,75.05
2023-03-11T08:36:10.266Z,75.12
2023-03-11T08:37:10.193Z,75.57
2023-03-11T08:38:10.181Z,75.88
2023-03-11T08:39:10.314Z,75.98
2023-03-11T08:40:10.210Z,76.51
2023-03-11T08:41:10.163Z,76.61
2023-03-11T08:42:10.134Z,76.40
2023-03-11T08:43:10.208Z,76.30
2023-03-11T08:44:10.123Z,76.51
2023-03-11T08:45:10.124Z,76.72
2023-03-11T08:46:10.110Z,76.89
2023-03-11T08:47:10.090Z,76.99
2023-03-11T08:48:10.074Z,76.68
2023-03-11T08:49:10.060Z,76.26
2023-03-11T08:50:10.052Z,75.95
2023-03-11T08:51:10.011Z,75.85
2023-03-11T08:52:09.997Z,75.95
2023-03-11T08:53:09.991Z,76.06
2023-03-11T08:54:09.975Z,76.16
2023-03-11T08:55:09.983Z,75.74
2023-03-11T08:56:09.950Z,75.53
2023-03-11T08:57:09.967Z,74.60
2023-03-11T08:58:09.918Z,74.80
2023-03-11T08:59:09.933Z,75.12
2023-03-11T09:00:12.020Z,75.40
2023-03-11T09:01:09.883Z,75.09
2023-03-11T09:02:09.895Z,75.29
2023-03-11T09:03:09.872Z,74.87
2023-03-11T09:04:09.875Z,74.87
2023-03-11T09:05:09.829Z,74.77
2023-03-11T09:06:09.869Z,74.46
2023-03-11T09:07:09.803Z,74.46
2023-03-11T09:08:09.798Z,74.35
2023-03-11T09:09:09.807Z,74.04
2023-03-11T09:10:09.794Z,74.35
2023-03-11T09:11:09.745Z,74.46
2023-03-11T09:12:09.782Z,74.63
2023-03-11T09:13:09.766Z,74.11
2023-03-11T09:14:09.832Z,73.80
2023-03-11T09:15:09.724Z,74.43
2023-03-11T09:16:09.738Z,74.84
2023-03-11T09:17:09.679Z,74.53
2023-03-11T09:18:09.727Z,73.80
2023-03-11T09:19:09.679Z,73.69
2023-03-11T09:20:09.646Z,73.69
2023-03-11T09:21:09.633Z,73.80
2023-03-11T09:22:09.611Z,73.80
2023-03-11T09:23:09.619Z,73.59
2023-03-11T09:24:09.591Z,73.38
2023-03-11T09:25:09.574Z,73.49
2023-03-11T09:26:09.562Z,73.25
2023-03-11T09:27:09.575Z,73.14
2023-03-11T09:28:09.564Z,72.62
2023-03-11T09:29:09.525Z,72.00
2023-03-11T09:30:40.119Z,72.83
2023-03-11T09:31:09.775Z,73.35
2023-03-11T09:32:09.516Z,73.35
2023-03-11T09:33:09.466Z,73.87
2023-03-11T09:34:09.451Z,72.83
2023-03-11T09:35:09.463Z,72.90
2023-03-11T09:36:09.435Z,73.00
2023-03-11T09:37:09.419Z,72.49
2023-03-11T09:38:09.431Z,72.69
2023-03-11T09:39:09.391Z,72.28
2023-03-11T09:40:09.388Z,72.28
2023-03-11T09:41:09.362Z,72.28
2023-03-11T09:42:09.359Z,71.55
2023-03-11T09:43:09.363Z,72.49
2023-03-11T09:44:09.333Z,72.69
2023-03-11T09:45:09.300Z,72.59
2023-03-11T09:46:09.311Z,72.45
2023-03-11T09:47:09.285Z,72.24
2023-03-11T09:48:09.295Z,72.34
2023-03-11T09:49:09.285Z,72.03
2023-03-11T09:50:09.253Z,71.51
2023-03-11T09:51:09.242Z,71.62
2023-03-11T09:52:09.241Z,71.72
2023-03-11T09:53:09.221Z,71.62
2023-03-11T09:54:09.185Z,71.10
2023-03-11T09:55:09.190Z,71.41
2023-03-11T09:56:09.167Z,72.03
2023-03-11T09:57:09.145Z,72.24
2023-03-11T09:58:09.158Z,71.93
2023-03-11T09:59:09.126Z,71.10
2023-03-11T10:00:09.115Z,71.20
2023-03-11T10:01:09.124Z,71.31
2023-03-11T10:02:09.170Z,71.31
2023-03-11T10:03:09.191Z,70.68
2023-03-11T10:04:09.081Z,70.68
2023-03-11T10:05:09.053Z,70.37
2023-03-11T10:06:09.025Z,70.37
2023-03-11T10:07:09.008Z,70.58
2023-03-11T10:08:09.007Z,70.27
2023-03-11T10:09:09.020Z,69.74
2023-03-11T10:10:08.987Z,68.91
2023-03-11T10:11:08.970Z,68.60
2023-03-11T10:12:08.957Z,68.95
2023-03-11T10:13:08.956Z,69.78
2023-03-11T10:14:08.935Z,69.15
2023-03-11T10:15:08.907Z,68.95
2023-03-11T10:16:09.000Z,68.63
2023-03-11T10:17:08.894Z,68.43
2023-03-11T10:18:08.889Z,67.91
2023-03-11T10:19:08.871Z,69.26
2023-03-11T10:20:08.895Z,69.89
2023-03-11T10:21:08.835Z,69.57
2023-03-11T10:22:08.813Z,69.89
2023-03-11T10:23:08.830Z,69.78
2023-03-11T10:24:08.803Z,69.47
2023-03-11T10:25:08.779Z,69.89
2023-03-11T10:26:08.793Z,70.51
2023-03-11T10:27:08.768Z,70.30
2023-03-11T10:28:08.776Z,69.89
2023-03-11T10:29:08.730Z,70.30
2023-03-11T10:30:08.709Z,70.72
2023-03-11T10:31:08.699Z,70.82
2023-03-11T10:32:08.702Z,70.30
2023-03-11T10:33:08.776Z,69.47
2023-03-11T10:34:08.697Z,70.20
2023-03-11T10:35:08.661Z,70.61
2023-03-11T10:36:08.730Z,70.40
2023-03-11T10:37:08.627Z,70.51
2023-03-11T10:38:08.617Z,70.82
2023-03-11T10:39:08.627Z,69.99
2023-03-11T10:40:08.596Z,69.05
2023-03-11T10:41:08.598Z,69.37
2023-03-11T10:42:08.585Z,70.20
2023-03-11T10:43:08.555Z,70.51
2023-03-11T10:44:08.542Z,70.30
2023-03-11T10:45:08.541Z,69.68
2023-03-11T10:46:08.587Z,69.68
2023-03-11T10:47:08.491Z,69.47
2023-03-11T10:48:08.516Z,69.26
2023-03-11T10:49:08.460Z,69.96
2023-03-11T10:50:08.454Z,69.02
2023-03-11T10:51:08.445Z,69.64
2023-03-11T10:52:08.444Z,68.81
2023-03-11T10:53:08.441Z,68.91
2023-03-11T10:54:08.430Z,69.12
2023-03-11T10:55:08.384Z,69.33
2023-03-11T10:56:08.399Z,69.74
2023-03-11T10:57:08.358Z,70.17
2023-03-11T10:58:08.352Z,70.27
2023-03-11T10:59:08.336Z,70.27
2023-03-11T11:00:08.315Z,69.64
2023-03-11T11:01:08.357Z,68.71
2023-03-11T11:02:08.296Z,69.23
2023-03-11T11:03:08.300Z,69.12
2023-03-11T11:04:08.328Z,68.91
2023-03-11T11:05:08.284Z,68.71
2023-03-11T11:06:08.260Z,69.02
2023-03-11T11:07:08.217Z,68.19
2023-03-11T11:08:08.228Z,69.02
2023-03-11T11:09:08.203Z,68.40
2023-03-11T11:10:08.229Z,67.88
2023-03-11T11:11:08.187Z,67.77
2023-03-11T11:12:08.190Z,67.67
2023-03-11T11:13:08.157Z,67.98
2023-03-11T11:14:08.163Z,67.57
2023-03-11T11:15:08.131Z,67.46
2023-03-11T11:16:08.149Z,67.43
2023-03-11T11:17:08.094Z,67.54
2023-03-11T11:18:08.102Z,67.22
2023-03-11T11:19:08.088Z,68.26
2023-03-11T11:20:08.156Z,67.95
2023-03-11T11:21:08.084Z,67.22
2023-03-11T11:22:08.048Z,67.22
2023-03-11T11:23:08.025Z,67.43
2023-03-11T11:24:08.026Z,66.91
2023-03-11T11:25:08.079Z,66.60
2023-03-11T11:26:07.996Z,66.91
2023-03-11T11:27:08.005Z,67.12
2023-03-11T11:28:07.956Z,66.81
2023-03-11T11:29:09.169Z,66.28
2023-03-11T11:30:07.931Z,66.18
2023-03-11T11:31:08.015Z,66.28
2023-03-11T11:32:07.909Z,65.87
2023-03-11T11:33:07.913Z,65.01
2023-03-11T11:34:07.877Z,64.80
2023-03-11T11:35:07.916Z,65.32
2023-03-11T11:36:07.851Z,63.97
2023-03-11T11:37:07.866Z,63.87
2023-03-11T11:38:07.830Z,63.87
2023-03-11T11:39:07.806Z,64.39
2023-03-11T11:40:09.497Z,64.39
2023-03-11T11:41:07.798Z,64.39
2023-03-11T11:42:07.799Z,63.14
2023-03-11T11:43:07.788Z,62.83
2023-03-11T11:44:07.756Z,62.52
2023-03-11T11:45:07.736Z,63.14
2023-03-11T11:46:07.796Z,63.66
2023-03-11T11:47:07.713Z,64.18
2023-03-11T11:48:07.703Z,63.97
2023-03-11T11:49:07.690Z,65.42
2023-03-11T11:50:07.684Z,64.87
2023-03-11T11:51:07.688Z,64.67
2023-03-11T11:52:07.626Z,63.63
2023-03-11T11:53:07.645Z,63.11
2023-03-11T11:54:07.607Z,60.93
2023-03-11T11:55:07.608Z,61.55
2023-03-11T11:56:07.601Z,62.38
2023-03-11T11:57:07.580Z,62.18
2023-03-11T11:58:07.592Z,62.28
2023-03-11T11:59:07.553Z,61.76
2023-03-11T12:00:07.553Z,61.97
2023-03-11T12:01:07.545Z,61.14
2023-03-11T12:02:07.528Z,62.38
2023-03-11T12:03:07.513Z,61.53
2023-03-11T12:04:07.560Z,62.15
2023-03-11T12:05:07.533Z,62.15
2023-03-11T12:06:07.469Z,61.63
2023-03-11T12:07:07.458Z,58.03
2023-03-11T12:08:07.418Z,59.06
2023-03-11T12:09:07.446Z,61.45
2023-03-11T12:10:21.664Z,61.76
2023-03-11T12:11:07.411Z,61.14
2023-03-11T12:12:07.397Z,61.55
2023-03-11T12:13:07.398Z,61.45
2023-03-11T12:14:07.385Z,61.43
2023-03-11T12:15:07.361Z,61.94
2023-03-11T12:16:07.367Z,62.05
2023-03-11T12:17:07.322Z,61.84
2023-03-11T12:18:07.314Z,60.91
2023-03-11T12:19:07.279Z,60.49
2023-03-11T12:20:07.274Z,60.67
2023-03-11T12:21:07.251Z,60.05
2023-03-11T12:22:07.292Z,60.05
2023-03-11T12:23:07.241Z,60.88
2023-03-11T12:24:07.239Z,60.88
2023-03-11T12:25:07.209Z,61.19
2023-03-11T12:26:07.187Z,60.36
2023-03-11T12:27:07.204Z,60.57
2023-03-11T12:28:07.169Z,60.05
2023-03-11T12:29:07.190Z,59.84
2023-03-11T12:30:07.146Z,58.59
2023-03-11T12:31:07.177Z,57.76
2023-03-11T12:32:07.119Z,56.41
2023-03-11T12:33:07.140Z,56.83
2023-03-11T12:34:07.090Z,55.07
2023-03-11T12:35:07.080Z,55.93
2023-03-11T12:36:07.202Z,54.89
2023-03-11T12:37:07.056Z,55.41
2023-03-11T12:38:07.030Z,56.34
2023-03-11T12:39:07.020Z,57.69
2023-03-11T12:40:07.049Z,58.00
2023-03-11T12:41:07.039Z,56.03
2023-03-11T12:42:06.989Z,56.13
2023-03-11T12:43:06.988Z,57.24
2023-03-11T12:44:06.967Z,58.07
2023-03-11T12:45:06.964Z,56.62
2023-03-11T12:46:06.931Z,54.65
2023-03-11T12:47:06.915Z,54.99
2023-03-11T12:48:06.908Z,54.99
2023-03-11T12:49:06.905Z,53.96
2023-03-11T12:50:06.881Z,54.16
2023-03-11T12:51:06.866Z,56.13
2023-03-11T12:52:06.847Z,56.24